Algona, Iowa
Current Conditions -  °F | °C
As of 8:15 PM on Friday 19 Dec 2014 (Local Time) from KAXA Reporting Station
Haze Haze  
Wind Chill: 23°   Ceiling: 600
Heat Index: 30°   Visibility: 4mi
Dew Point: 30°   Wind: 8mph
Humidity: 100%   Direction: 160°SSE
Pressure: 30.15"   Gusts: NA
Location:  43.07°N, 94.23°W
Report Text: KAXA 200215Z AUTO 16007KT 4SM BR OVC006 M01/M01 A3015 RMK AO2
Loading
Personal Weather Stations






























Interactive Weather Map New forecast layout! Learn more

10-Day Weather Forecast

Advertisements
Track Severe Weather on mobile